Time;durP1;ratioP1;P1;durP2;ratioP2;P2;SDS_P1;SDS_P2;PMS_P1;PMS_P2;Temp;Humidity;BMP_temperature;BMP_pressure;BME280_temperature;BME280_humidity;BME280_pressure;Samples;Min_cycle;Max_cycle;Signal;HPM_P1;HPM_P2
2023/06/09 00:01:25;;;;;;;22.73;5.13;;;12.60;99.90;;;;;;5014422;28;20061;-81
2023/06/09 00:03:52;;;;;;;18.60;5.40;;;12.60;99.90;;;;;;5026151;28;20080;-80
2023/06/09 00:06:22;;;;;;;23.23;6.15;;;12.60;99.90;;;;;;5026698;28;20037;-81
2023/06/09 00:08:50;;;;;;;16.05;5.25;;;12.60;99.90;;;;;;5026493;28;20388;-80
2023/06/09 00:11:16;;;;;;;17.33;5.75;;;12.60;99.90;;;;;;5026607;28;20112;-81
2023/06/09 00:13:42;;;;;;;15.38;5.38;;;12.60;99.90;;;;;;5027333;28;20076;-80
2023/06/09 00:16:08;;;;;;;15.02;5.32;;;12.60;99.90;;;;;;5027184;28;20033;-79
2023/06/09 00:18:34;;;;;;;23.55;6.53;;;12.60;99.90;;;;;;5042420;28;20393;-81
2023/06/09 00:21:00;;;;;;;19.08;5.78;;;12.50;99.90;;;;;;5036453;28;20026;-80
2023/06/09 00:23:28;;;;;;;23.80;6.43;;;12.50;99.90;;;;;;5024829;28;20029;-80
2023/06/09 00:25:54;;;;;;;13.50;5.40;;;12.60;99.90;;;;;;5009985;28;20033;-80
2023/06/09 00:28:20;;;;;;;21.00;6.03;;;12.60;99.90;;;;;;5014915;28;20022;-79
2023/06/09 00:30:46;;;;;;;20.42;5.55;;;12.50;99.90;;;;;;5024470;28;20033;-80
2023/06/09 00:33:11;;;;;;;19.15;6.10;;;12.50;99.90;;;;;;5024238;28;20029;-80
2023/06/09 00:35:37;;;;;;;21.60;5.68;;;12.60;99.90;;;;;;5025648;28;20241;-80
2023/06/09 00:38:03;;;;;;;18.10;6.22;;;12.60;99.90;;;;;;5026075;28;20020;-79
2023/06/09 00:40:29;;;;;;;17.98;5.75;;;12.60;99.90;;;;;;5025820;28;20037;-80
2023/06/09 00:42:55;;;;;;;14.52;5.75;;;12.60;99.90;;;;;;5026406;28;20155;-80
2023/06/09 00:45:20;;;;;;;20.65;6.10;;;12.60;99.90;;;;;;5025403;28;20121;-81
2023/06/09 00:47:46;;;;;;;20.48;7.03;;;12.50;99.90;;;;;;5009959;28;20041;-81
2023/06/09 00:50:15;;;;;;;17.73;6.10;;;12.50;99.90;;;;;;5024672;28;20049;-80
2023/06/09 00:52:41;;;;;;;27.17;6.70;;;12.50;99.90;;;;;;5025067;28;20111;-80
2023/06/09 00:55:08;;;;;;;21.42;6.20;;;12.50;99.90;;;;;;5025710;28;20021;-80
2023/06/09 00:57:34;;;;;;;21.63;6.30;;;12.50;99.90;;;;;;5017421;28;20046;-81
2023/06/09 01:00:01;;;;;;;20.02;6.65;;;12.50;99.90;;;;;;5026386;28;20033;-81
2023/06/09 01:02:26;;;;;;;17.92;6.05;;;12.50;99.90;;;;;;5026815;28;20417;-81
2023/06/09 01:04:54;;;;;;;20.42;6.28;;;12.50;99.90;;;;;;5023207;28;20029;-81
2023/06/09 01:07:38;;;;;;;23.23;6.15;;;12.50;99.90;;;;;;5027126;28;20073;-81
2023/06/09 01:10:18;;;;;;;25.33;7.93;;;12.50;99.90;;;;;;5030305;28;20048;-81
2023/06/09 01:13:11;;;;;;;19.75;6.93;;;12.40;99.90;;;;;;5027052;28;20037;-80
2023/06/09 01:15:45;;;;;;;18.25;6.55;;;12.40;99.90;;;;;;5026475;28;20136;-81
2023/06/09 01:18:14;;;;;;;25.48;7.15;;;12.40;99.90;;;;;;5033003;28;20052;-80
2023/06/09 01:20:53;;;;;;;24.00;7.70;;;12.50;99.90;;;;;;5034380;28;20108;-80
2023/06/09 01:23:24;;;;;;;28.55;7.45;;;12.50;99.90;;;;;;5025556;28;20136;-80
2023/06/09 01:25:52;;;;;;;19.55;6.72;;;12.50;99.90;;;;;;5039579;28;20056;-80
2023/06/09 01:28:23;;;;;;;22.63;8.18;;;12.50;99.90;;;;;;5011934;28;20073;-80
2023/06/09 01:30:51;;;;;;;24.85;7.30;;;12.50;99.90;;;;;;5014440;28;20571;-81
2023/06/09 01:33:20;;;;;;;25.55;7.20;;;12.40;99.90;;;;;;5025498;28;20057;-80
2023/06/09 01:35:46;;;;;;;19.30;7.55;;;12.50;99.90;;;;;;5025544;28;20404;-80
2023/06/09 01:38:13;;;;;;;22.17;7.15;;;12.40;99.90;;;;;;5021666;28;20067;-80
2023/06/09 01:40:39;;;;;;;24.52;7.70;;;12.40;99.90;;;;;;5026751;28;20041;-80
2023/06/09 01:43:06;;;;;;;21.48;7.30;;;12.40;99.90;;;;;;5025598;28;20100;-80
2023/06/09 01:45:32;;;;;;;28.70;7.93;;;12.40;99.90;;;;;;5025915;28;20041;-80
2023/06/09 01:47:57;;;;;;;20.10;7.90;;;12.50;99.90;;;;;;5024961;28;20042;-80
2023/06/09 01:50:41;;;;;;;28.75;9.15;;;12.50;99.90;;;;;;5021234;28;20124;-81
2023/06/09 01:53:30;;;;;;;24.00;7.53;;;12.40;99.90;;;;;;5020444;28;20536;-81
2023/06/09 01:56:06;;;;;;;24.55;6.82;;;12.40;99.90;;;;;;5011348;28;20448;-81
2023/06/09 01:58:37;;;;;;;30.73;8.23;;;12.40;99.90;;;;;;5021143;28;20377;-80
2023/06/09 02:01:03;;;;;;;28.75;8.35;;;12.40;99.90;;;;;;5011769;28;20065;-81
2023/06/09 02:03:31;;;;;;;23.63;9.30;;;12.40;99.90;;;;;;5015131;28;20051;-80
2023/06/09 02:05:58;;;;;;;33.45;9.20;;;12.50;99.90;;;;;;5020927;28;20612;-80
2023/06/09 02:08:25;;;;;;;31.70;9.45;;;12.50;99.90;;;;;;5019288;28;20108;-81
2023/06/09 02:10:50;;;;;;;20.42;7.57;;;12.50;99.90;;;;;;5014312;28;20025;-81
2023/06/09 02:13:19;;;;;;;19.15;8.00;;;12.40;99.90;;;;;;5017368;28;20030;-81
2023/06/09 02:15:49;;;;;;;34.15;9.15;;;12.50;99.90;;;;;;5024371;28;20041;-80
2023/06/09 02:18:17;;;;;;;28.85;8.32;;;12.40;99.90;;;;;;5023146;28;20104;-79
2023/06/09 02:20:43;;;;;;;24.67;8.32;;;12.50;99.90;;;;;;5023166;28;20048;-80
2023/06/09 02:23:10;;;;;;;30.17;8.73;;;12.40;99.90;;;;;;5022313;28;20029;-80
2023/06/09 02:25:36;;;;;;;22.98;7.85;;;12.40;99.90;;;;;;5000484;28;20043;-80
2023/06/09 02:28:03;;;;;;;34.80;8.88;;;12.40;99.90;;;;;;5024912;28;20036;-80
2023/06/09 02:30:29;;;;;;;28.00;7.95;;;12.40;99.90;;;;;;5021867;28;20489;-81
2023/06/09 02:32:55;;;;;;;27.17;9.13;;;12.40;99.90;;;;;;5022587;28;20033;-80
2023/06/09 02:35:21;;;;;;;22.50;7.75;;;12.40;99.90;;;;;;5018654;28;20033;-81
2023/06/09 02:37:47;;;;;;;24.63;7.65;;;12.40;99.90;;;;;;5028541;28;20087;-81
2023/06/09 02:40:13;;;;;;;25.63;8.48;;;12.40;99.90;;;;;;5025337;28;20025;-81
2023/06/09 02:42:39;;;;;;;21.52;7.18;;;12.40;99.90;;;;;;5021691;28;20460;-80
2023/06/09 02:45:06;;;;;;;22.00;8.13;;;12.30;99.90;;;;;;5022825;28;20035;-81
2023/06/09 02:47:32;;;;;;;25.98;8.27;;;12.30;99.90;;;;;;5020388;28;20127;-81
2023/06/09 02:49:57;;;;;;;23.65;8.02;;;12.30;99.90;;;;;;5021492;28;20040;-80
2023/06/09 02:52:23;;;;;;;21.23;6.78;;;12.30;99.90;;;;;;5021643;28;20025;-80
2023/06/09 02:54:49;;;;;;;29.65;8.05;;;12.30;99.90;;;;;;5022124;28;20547;-80
2023/06/09 02:57:14;;;;;;;23.08;6.57;;;12.30;99.90;;;;;;5017736;28;20056;-80
2023/06/09 02:59:40;;;;;;;23.17;7.05;;;12.20;99.90;;;;;;5021707;28;20127;-80
2023/06/09 03:02:06;;;;;;;18.52;7.55;;;12.20;99.90;;;;;;5020174;28;20453;-80
2023/06/09 03:04:34;;;;;;;23.95;8.20;;;12.30;99.90;;;;;;5021558;28;20101;-81
2023/06/09 03:07:00;;;;;;;24.85;8.13;;;12.20;99.90;;;;;;5020204;28;20041;-81
2023/06/09 03:09:26;;;;;;;18.30;6.72;;;12.10;99.90;;;;;;5022634;28;20033;-80
2023/06/09 03:11:51;;;;;;;19.40;6.97;;;12.10;99.90;;;;;;5022010;28;20032;-80
2023/06/09 03:14:17;;;;;;;23.48;7.72;;;12.10;99.90;;;;;;5013684;28;20053;-80
2023/06/09 03:16:42;;;;;;;25.05;8.98;;;12.10;99.90;;;;;;5028154;28;20095;-79
2023/06/09 03:19:08;;;;;;;26.27;8.02;;;12.10;99.90;;;;;;5035694;28;20021;-80
2023/06/09 03:21:35;;;;;;;24.52;8.05;;;12.10;99.90;;;;;;5022678;28;20107;-79
2023/06/09 03:24:04;;;;;;;18.90;6.93;;;12.10;99.90;;;;;;5024701;28;20036;-81
2023/06/09 03:26:30;;;;;;;26.45;7.38;;;12.10;99.90;;;;;;5034734;28;20033;-79
2023/06/09 03:28:55;;;;;;;24.38;7.85;;;12.10;99.90;;;;;;5026654;28;20037;-80
2023/06/09 03:31:21;;;;;;;22.83;8.13;;;12.10;99.90;;;;;;5026263;28;20021;-80
2023/06/09 03:33:47;;;;;;;28.40;7.78;;;12.00;99.90;;;;;;5025981;28;20045;-81
2023/06/09 03:36:12;;;;;;;18.35;7.72;;;12.00;99.90;;;;;;5026305;28;20033;-80
2023/06/09 03:38:38;;;;;;;25.70;8.10;;;12.00;99.90;;;;;;5025058;28;20088;-80
2023/06/09 03:41:04;;;;;;;17.55;7.65;;;12.00;99.90;;;;;;5023716;28;20034;-81
2023/06/09 03:43:29;;;;;;;24.15;8.40;;;12.00;99.90;;;;;;5012600;28;20048;-81
2023/06/09 03:45:55;;;;;;;25.60;8.10;;;12.00;99.90;;;;;;5018298;28;20051;-80
2023/06/09 03:48:21;;;;;;;23.95;7.80;;;12.00;99.90;;;;;;5024150;28;20022;-80
2023/06/09 03:50:47;;;;;;;22.02;7.75;;;12.00;99.90;;;;;;5019940;28;20030;-80
2023/06/09 03:53:12;;;;;;;19.55;7.05;;;12.00;99.90;;;;;;5026330;28;20021;-80
2023/06/09 03:55:38;;;;;;;22.80;7.28;;;12.00;99.90;;;;;;5024400;28;20025;-80
2023/06/09 03:58:04;;;;;;;21.63;7.75;;;11.90;99.90;;;;;;5022999;28;20122;-80
2023/06/09 04:00:30;;;;;;;22.48;7.45;;;11.90;99.90;;;;;;5016696;28;20040;-80
2023/06/09 04:02:56;;;;;;;24.02;7.05;;;12.00;99.90;;;;;;5024920;28;20049;-80
2023/06/09 04:05:22;;;;;;;20.60;7.20;;;12.00;99.90;;;;;;5012564;28;20044;-80
2023/06/09 04:07:48;;;;;;;20.02;7.05;;;12.10;99.90;;;;;;5022036;28;20052;-80
2023/06/09 04:10:13;;;;;;;24.52;7.38;;;12.00;99.90;;;;;;5001499;28;20033;-79
2023/06/09 04:12:41;;;;;;;19.80;7.13;;;12.00;99.90;;;;;;5015799;28;20040;-79
2023/06/09 04:15:08;;;;;;;20.02;6.47;;;12.00;99.90;;;;;;5024060;28;20128;-80
2023/06/09 04:17:36;;;;;;;24.55;7.72;;;12.10;99.90;;;;;;5021743;28;20025;-80
2023/06/09 04:20:04;;;;;;;23.65;7.85;;;12.10;99.90;;;;;;5020532;28;20072;-80
2023/06/09 04:22:30;;;;;;;19.88;7.60;;;12.20;99.90;;;;;;5017057;28;20025;-80
2023/06/09 04:24:56;;;;;;;27.00;7.63;;;12.20;99.90;;;;;;5025825;28;20388;-80
2023/06/09 04:27:23;;;;;;;27.20;8.57;;;12.30;99.90;;;;;;5025190;28;20029;-80
2023/06/09 04:29:50;;;;;;;24.27;8.52;;;12.30;99.90;;;;;;5007426;28;20110;-80
2023/06/09 04:32:16;;;;;;;21.85;7.90;;;12.40;99.90;;;;;;5027728;28;20029;-80
2023/06/09 04:34:45;;;;;;;30.08;8.73;;;12.40;99.90;;;;;;5023586;28;20192;-80
2023/06/09 04:37:12;;;;;;;25.70;9.13;;;12.50;99.90;;;;;;5023671;28;20098;-80
2023/06/09 04:39:45;;;;;;;24.35;8.38;;;12.50;99.90;;;;;;5025103;28;20083;-80
2023/06/09 04:42:11;;;;;;;22.48;8.27;;;12.50;99.90;;;;;;5014206;28;20029;-80
2023/06/09 04:44:37;;;;;;;31.65;8.75;;;12.60;99.90;;;;;;5025811;28;20083;-80
2023/06/09 04:47:03;;;;;;;30.52;8.80;;;12.60;99.90;;;;;;5034460;28;20115;-80
2023/06/09 04:49:30;;;;;;;26.70;7.97;;;12.70;99.90;;;;;;5027877;28;20044;-80
2023/06/09 04:51:57;;;;;;;21.60;7.70;;;12.80;99.90;;;;;;5015777;28;20110;-80
2023/06/09 04:54:28;;;;;;;23.15;8.57;;;12.90;99.90;;;;;;5023113;28;20109;-79
2023/06/09 04:56:57;;;;;;;33.55;9.13;;;13.00;99.90;;;;;;5025191;28;20022;-80
2023/06/09 04:59:28;;;;;;;26.73;9.30;;;13.10;99.90;;;;;;5022978;28;20084;-80
2023/06/09 05:01:55;;;;;;;;;;;13.20;99.90;;;;;;5003478;28;20128;-80
2023/06/09 05:04:20;;;;;;;20.58;7.90;;;13.20;99.90;;;;;;5021922;28;19916;-80
2023/06/09 05:06:46;;;;;;;24.17;8.80;;;13.30;99.90;;;;;;5030234;28;20044;-80
2023/06/09 05:09:12;;;;;;;21.55;8.60;;;13.40;99.90;;;;;;5018595;28;20049;-81
2023/06/09 05:11:38;;;;;;;20.67;7.47;;;13.50;99.90;;;;;;5017696;28;20453;-81
2023/06/09 05:14:07;;;;;;;24.40;7.75;;;13.60;99.90;;;;;;5025077;28;20032;-79
2023/06/09 05:16:36;;;;;;;29.27;8.40;;;13.60;99.90;;;;;;5001850;28;20022;-78
2023/06/09 05:19:02;;;;;;;29.42;8.27;;;13.70;99.90;;;;;;5015693;28;20057;-80
2023/06/09 05:21:27;;;;;;;21.63;7.97;;;13.80;99.90;;;;;;5023033;28;20883;-81
2023/06/09 05:23:53;;;;;;;18.67;7.20;;;13.90;99.90;;;;;;5032257;28;20090;-81
2023/06/09 05:26:19;;;;;;;24.98;8.48;;;14.00;99.90;;;;;;5043838;28;20503;-79
2023/06/09 05:28:46;;;;;;;23.38;7.55;;;14.00;99.90;;;;;;5026975;28;20389;-80
2023/06/09 05:31:11;;;;;;;28.48;8.15;;;14.10;99.90;;;;;;5023366;28;20497;-81
2023/06/09 05:33:37;;;;;;;24.98;8.13;;;14.20;99.90;;;;;;5022087;28;20183;-82
2023/06/09 05:36:03;;;;;;;20.58;7.55;;;14.30;99.90;;;;;;5018824;28;20037;-81
2023/06/09 05:38:29;;;;;;;19.92;6.80;;;14.40;99.90;;;;;;5010937;28;20034;-81
2023/06/09 05:40:55;;;;;;;27.75;7.40;;;14.50;99.90;;;;;;5014461;28;20029;-81
2023/06/09 05:43:25;;;;;;;24.85;7.13;;;14.60;99.90;;;;;;5022276;28;20608;-80
2023/06/09 05:45:51;;;;;;;25.48;8.48;;;14.70;99.90;;;;;;5023569;28;20045;-81
2023/06/09 05:48:16;;;;;;;20.70;7.18;;;14.60;99.90;;;;;;5023193;28;20022;-81
2023/06/09 05:50:42;;;;;;;26.05;7.75;;;14.70;99.90;;;;;;5016323;28;20029;-81
2023/06/09 05:53:07;;;;;;;25.35;7.43;;;14.80;99.90;;;;;;5031537;28;20106;-80
2023/06/09 05:55:33;;;;;;;23.83;8.35;;;14.80;99.90;;;;;;5026805;28;20034;-80
2023/06/09 05:58:00;;;;;;;22.75;7.45;;;14.90;99.90;;;;;;5022936;28;20540;-79
2023/06/09 06:00:29;;;;;;;27.10;7.50;;;15.10;99.90;;;;;;5020886;28;20098;-81
2023/06/09 06:02:55;;;;;;;18.80;7.68;;;15.20;99.90;;;;;;5018355;28;20069;-80
2023/06/09 06:05:21;;;;;;;22.27;7.72;;;15.40;99.90;;;;;;5021898;28;20127;-81
2023/06/09 06:07:47;;;;;;;25.15;10.93;;;15.40;99.90;;;;;;5016380;28;20236;-81
2023/06/09 06:10:12;;;;;;;22.05;8.50;;;15.50;99.90;;;;;;5021168;28;20616;-82
2023/06/09 06:12:38;;;;;;;20.40;8.90;;;15.60;99.90;;;;;;5023813;28;20060;-81
2023/06/09 06:15:05;;;;;;;24.30;8.55;;;15.80;99.90;;;;;;5023565;28;20045;-81
2023/06/09 06:17:31;;;;;;;18.95;7.72;;;15.90;99.90;;;;;;5021886;28;20053;-82
2023/06/09 06:19:57;;;;;;;22.75;9.10;;;16.10;99.90;;;;;;5015243;28;20034;-80
2023/06/09 06:22:23;;;;;;;19.73;7.40;;;16.10;99.90;;;;;;5015434;28;20105;-81
2023/06/09 06:24:49;;;;;;;205.65;104.32;;;16.30;99.90;;;;;;5021518;28;20029;-81
2023/06/09 06:27:14;;;;;;;26.58;9.07;;;16.40;99.90;;;;;;5010205;28;20071;-80
2023/06/09 06:29:40;;;;;;;19.95;7.32;;;16.40;99.90;;;;;;5015429;28;20037;-83
2023/06/09 06:32:07;;;;;;;21.30;7.00;;;16.40;99.90;;;;;;5017302;28;20102;-81
2023/06/09 06:34:32;;;;;;;26.33;9.48;;;16.50;99.90;;;;;;5015381;28;20072;-83
2023/06/09 06:36:58;;;;;;;24.48;8.27;;;16.50;99.90;;;;;;5020378;28;20239;-81
2023/06/09 06:39:24;;;;;;;27.15;9.85;;;16.60;99.90;;;;;;5022886;28;20458;-82
2023/06/09 06:41:49;;;;;;;23.48;9.60;;;16.70;99.90;;;;;;5020104;28;20032;-80
2023/06/09 06:44:15;;;;;;;19.20;7.85;;;16.80;99.90;;;;;;5018254;28;20181;-80
2023/06/09 06:46:40;;;;;;;21.83;7.88;;;17.00;99.90;;;;;;5020677;28;20083;-81
2023/06/09 06:49:06;;;;;;;25.75;8.00;;;17.00;99.90;;;;;;5012805;28;20172;-82
2023/06/09 06:51:32;;;;;;;23.08;7.93;;;17.10;99.90;;;;;;5015250;28;20030;-80
2023/06/09 06:53:57;;;;;;;25.25;8.50;;;17.00;99.90;;;;;;5018624;28;20484;-81
2023/06/09 06:56:24;;;;;;;20.50;8.30;;;17.10;99.90;;;;;;5019250;28;20044;-82
2023/06/09 06:58:50;;;;;;;22.70;8.57;;;17.20;99.90;;;;;;5018680;28;20079;-81
2023/06/09 07:01:17;;;;;;;21.77;8.25;;;17.20;99.90;;;;;;5018466;28;20037;-82
2023/06/09 07:03:42;;;;;;;22.55;8.30;;;17.50;99.90;;;;;;5015150;28;20030;-82
2023/06/09 07:06:09;;;;;;;17.10;6.82;;;17.80;99.90;;;;;;5012989;28;20038;-83
2023/06/09 07:08:35;;;;;;;22.02;9.07;;;18.10;99.90;;;;;;5016630;28;20029;-81
2023/06/09 07:11:01;;;;;;;25.45;7.80;;;17.80;99.90;;;;;;5014297;28;20037;-81
2023/06/09 07:13:27;;;;;;;22.80;7.50;;;18.10;99.90;;;;;;5015913;28;20036;-80
2023/06/09 07:15:52;;;;;;;22.40;7.43;;;18.20;99.90;;;;;;4999116;28;20029;-82
2023/06/09 07:18:18;;;;;;;26.40;7.78;;;18.30;99.90;;;;;;5015961;28;20083;-81
2023/06/09 07:20:43;;;;;;;20.67;7.93;;;18.60;99.90;;;;;;5019013;28;20033;-81
2023/06/09 07:23:09;;;;;;;20.83;7.35;;;18.80;99.90;;;;;;5032658;28;20033;-81
2023/06/09 07:25:35;;;;;;;22.08;7.30;;;19.20;99.90;;;;;;5021108;28;20053;-82
2023/06/09 07:28:02;;;;;;;21.77;7.50;;;19.50;99.90;;;;;;5022343;28;20025;-80
2023/06/09 07:30:27;;;;;;;25.27;7.47;;;20.50;99.90;;;;;;5022761;28;20044;-81
2023/06/09 07:32:53;;;;;;;17.33;7.03;;;22.00;97.00;;;;;;5021417;28;20790;-81
2023/06/09 07:35:19;;;;;;;15.35;6.38;;;23.60;93.20;;;;;;5019232;28;20036;-81
2023/06/09 07:37:46;;;;;;;17.48;6.53;;;25.30;87.50;;;;;;5016447;28;20727;-80
2023/06/09 07:40:12;;;;;;;19.95;6.30;;;26.20;84.60;;;;;;5021149;28;20033;-81
2023/06/09 07:42:38;;;;;;;20.90;6.32;;;28.20;77.90;;;;;;5022678;28;20040;-80
2023/06/09 07:45:04;;;;;;;16.38;5.95;;;29.00;71.50;;;;;;5027740;28;20056;-80
2023/06/09 07:47:30;;;;;;;17.83;5.60;;;29.80;65.50;;;;;;5020529;28;20041;-82
2023/06/09 07:49:56;;;;;;;22.02;6.05;;;30.00;64.70;;;;;;5017422;28;20037;-79
2023/06/09 07:52:21;;;;;;;14.52;5.50;;;29.80;62.80;;;;;;5019689;28;20075;-80
2023/06/09 07:54:47;;;;;;;13.43;5.30;;;30.90;59.60;;;;;;5024342;28;20022;-81
2023/06/09 07:57:13;;;;;;;13.63;5.43;;;31.00;58.00;;;;;;5019294;28;20079;-81
2023/06/09 07:59:40;;;;;;;16.38;5.90;;;31.80;55.90;;;;;;5017455;28;20030;-82
2023/06/09 08:02:05;;;;;;;16.70;5.82;;;32.50;53.20;;;;;;5021504;28;20033;-81
2023/06/09 08:04:31;;;;;;;15.10;4.90;;;32.00;52.90;;;;;;5018087;28;20069;-82
2023/06/09 08:06:59;;;;;;;13.43;4.93;;;32.20;53.10;;;;;;5022944;28;20073;-82
2023/06/09 08:09:26;;;;;;;16.17;5.43;;;32.40;51.60;;;;;;5014009;28;20084;-81
2023/06/09 08:11:52;;;;;;;14.32;4.75;;;31.50;51.60;;;;;;5017740;28;20059;-81
2023/06/09 08:14:17;;;;;;;17.90;5.85;;;32.00;53.50;;;;;;5020056;28;20051;-81
2023/06/09 08:16:43;;;;;;;14.32;5.32;;;31.30;50.90;;;;;;5021697;28;20040;-82
2023/06/09 08:19:09;;;;;;;16.88;5.30;;;31.50;52.60;;;;;;5023691;28;20030;-82
2023/06/09 08:21:42;;;;;;;15.13;5.35;;;31.10;52.50;;;;;;5022136;28;20051;-79
2023/06/09 08:24:08;;;;;;;14.63;4.80;;;31.20;52.90;;;;;;5023145;28;20041;-83
2023/06/09 08:26:34;;;;;;;17.05;5.55;;;32.60;51.20;;;;;;5023332;28;20048;-77
2023/06/09 08:28:59;;;;;;;16.90;5.53;;;31.90;50.20;;;;;;5023142;28;20021;-80
2023/06/09 08:31:27;;;;;;;14.30;4.97;;;31.90;49.60;;;;;;5021160;28;20083;-81
2023/06/09 08:33:54;;;;;;;15.15;5.53;;;32.70;49.70;;;;;;5004233;28;20040;-81
2023/06/09 08:36:20;;;;;;;13.60;5.03;;;32.30;51.00;;;;;;5022656;28;20069;-80
2023/06/09 08:38:46;;;;;;;18.98;5.72;;;32.20;49.70;;;;;;5022384;28;20120;-80
2023/06/09 08:41:14;;;;;;;17.52;5.38;;;32.20;49.30;;;;;;5022190;28;20199;-80
2023/06/09 08:43:40;;;;;;;15.55;5.78;;;33.00;47.80;;;;;;5021065;28;20029;-79
2023/06/09 08:46:10;;;;;;;14.15;5.38;;;33.50;45.30;;;;;;5022916;28;20079;-80
2023/06/09 08:48:41;;;;;;;15.52;5.40;;;34.10;45.50;;;;;;5022366;28;20396;-80
2023/06/09 08:51:08;;;;;;;16.25;5.50;;;34.70;45.50;;;;;;5018861;28;20524;-81
2023/06/09 08:53:34;;;;;;;14.25;4.88;;;34.10;44.10;;;;;;5014660;28;20025;-81
2023/06/09 08:56:01;;;;;;;15.95;5.40;;;34.90;44.80;;;;;;5021723;28;20033;-80
2023/06/09 08:58:27;;;;;;;13.48;5.15;;;36.30;42.80;;;;;;5023851;28;20037;-79
2023/06/09 09:00:53;;;;;;;13.75;5.35;;;35.90;42.50;;;;;;5022023;28;20073;-81
2023/06/09 09:03:20;;;;;;;15.18;5.25;;;36.00;40.10;;;;;;5021236;28;20136;-79
2023/06/09 09:05:47;;;;;;;13.48;4.95;;;35.40;40.60;;;;;;5019617;28;20022;-80
2023/06/09 09:08:14;;;;;;;14.13;5.53;;;36.00;42.40;;;;;;5022272;28;20034;-80
2023/06/09 09:10:45;;;;;;;14.98;5.35;;;35.20;41.60;;;;;;5023409;28;20073;-80
2023/06/09 09:13:11;;;;;;;15.23;5.60;;;33.80;42.00;;;;;;5025743;28;20029;-80
2023/06/09 09:15:46;;;;;;;17.38;5.80;;;33.60;43.60;;;;;;5024771;28;21087;-80
2023/06/09 09:18:11;;;;;;;14.25;5.60;;;33.40;43.90;;;;;;5019837;28;20029;-81
2023/06/09 09:20:37;;;;;;;18.83;5.97;;;33.40;42.70;;;;;;5013572;28;20033;-82
2023/06/09 09:23:06;;;;;;;18.38;5.45;;;33.80;42.20;;;;;;5023224;28;20118;-79
2023/06/09 09:25:32;;;;;;;12.77;4.65;;;34.00;42.60;;;;;;5020764;28;20101;-80
2023/06/09 09:28:06;;;;;;;14.98;5.05;;;35.60;42.80;;;;;;5014244;28;20163;-80
2023/06/09 09:30:48;;;;;;;14.65;4.82;;;36.90;39.90;;;;;;5023383;28;20146;-80
2023/06/09 09:33:26;;;;;;;13.30;5.03;;;36.30;40.20;;;;;;4997359;28;20104;-80
2023/06/09 09:35:59;;;;;;;17.13;5.35;;;37.70;39.70;;;;;;5018863;28;20026;-79
2023/06/09 09:38:27;;;;;;;12.15;4.78;;;37.50;38.30;;;;;;5024308;28;20461;-78
2023/06/09 09:40:56;;;;;;;13.00;5.05;;;37.30;37.80;;;;;;5023028;28;20040;-82
2023/06/09 09:43:24;;;;;;;16.08;5.22;;;37.80;37.90;;;;;;5021527;28;20042;-83
2023/06/09 09:45:52;;;;;;;13.82;5.65;;;37.70;36.00;;;;;;5020206;28;20029;-84
2023/06/09 09:48:21;;;;;;;14.70;4.25;;;36.20;37.10;;;;;;5018587;28;20026;-81
2023/06/09 09:50:48;;;;;;;16.33;5.32;;;37.60;39.20;;;;;;5019303;28;20033;-82
2023/06/09 09:53:15;;;;;;;12.93;5.22;;;37.10;37.00;;;;;;5020335;28;20109;-82
2023/06/09 09:55:47;;;;;;;14.18;4.45;;;37.40;36.90;;;;;;5019799;28;20059;-82
2023/06/09 09:58:13;;;;;;;10.85;4.90;;;38.50;37.30;;;;;;5027803;28;20049;-81
2023/06/09 10:00:43;;;;;;;12.95;4.78;;;38.00;36.00;;;;;;5034265;28;20437;-81
2023/06/09 10:03:17;;;;;;;14.88;5.13;;;38.30;36.90;;;;;;5038812;28;20550;-81
2023/06/09 10:05:49;;;;;;;14.07;5.03;;;37.50;35.20;;;;;;5038206;28;20041;-82
2023/06/09 10:08:21;;;;;;;14.93;5.25;;;38.20;36.10;;;;;;5038861;28;20028;-81
2023/06/09 10:10:47;;;;;;;13.77;5.45;;;37.60;36.30;;;;;;5043352;28;20961;-81
2023/06/09 10:13:14;;;;;;;15.15;5.00;;;36.60;36.70;;;;;;5043037;28;20523;-81
2023/06/09 10:15:45;;;;;;;16.00;4.85;;;36.20;38.10;;;;;;5037812;28;20178;-81
2023/06/09 10:18:12;;;;;;;16.30;5.50;;;36.20;39.60;;;;;;5031204;28;20055;-81
2023/06/09 10:20:41;;;;;;;15.10;4.70;;;36.20;37.60;;;;;;5030900;28;20041;-81
2023/06/09 10:23:07;;;;;;;16.42;4.75;;;37.10;38.20;;;;;;5030633;28;20048;-80
2023/06/09 10:25:33;;;;;;;14.63;5.10;;;37.80;37.20;;;;;;5029774;28;20094;-82
2023/06/09 10:27:58;;;;;;;14.27;4.55;;;37.40;36.20;;;;;;5033057;28;20033;-82
2023/06/09 10:30:25;;;;;;;13.10;5.28;;;36.80;36.50;;;;;;5029154;28;20041;-81
2023/06/09 10:32:56;;;;;;;12.55;4.63;;;37.50;35.70;;;;;;5041771;28;20035;-80
2023/06/09 10:35:31;;;;;;;10.70;4.50;;;37.60;37.20;;;;;;5033190;28;20026;-80
2023/06/09 10:37:58;;;;;;;12.98;4.63;;;38.20;38.20;;;;;;5032133;28;20691;-81
2023/06/09 10:40:42;;;;;;;12.73;4.80;;;38.80;37.00;;;;;;5031495;28;20017;-80
2023/06/09 10:43:34;;;;;;;11.23;4.45;;;39.30;35.20;;;;;;5027156;28;20029;-81
2023/06/09 10:46:00;;;;;;;12.98;4.90;;;39.60;33.10;;;;;;5031570;28;20037;-80
2023/06/09 10:48:48;;;;;;;12.70;4.53;;;38.50;34.90;;;;;;5028971;28;20024;-82
2023/06/09 10:51:26;;;;;;;13.15;4.43;;;39.00;36.40;;;;;;5018090;28;20036;-81
2023/06/09 10:54:10;;;;;;;11.63;4.28;;;40.10;34.60;;;;;;5032270;28;20033;-83
2023/06/09 10:56:40;;;;;;;12.05;4.93;;;40.10;34.30;;;;;;5042721;28;20033;-82
2023/06/09 10:59:26;;;;;;;12.82;4.57;;;39.30;33.40;;;;;;5035970;28;20053;-84
2023/06/09 11:02:04;;;;;;;13.40;4.75;;;37.80;36.40;;;;;;5042003;28;20044;-82
2023/06/09 11:04:44;;;;;;;10.38;4.40;;;36.60;37.70;;;;;;5019555;28;20051;-81
2023/06/09 11:07:17;;;;;;;14.18;4.93;;;36.10;35.60;;;;;;5034966;28;20041;-81
2023/06/09 11:10:03;;;;;;;15.07;4.90;;;36.30;36.20;;;;;;5029873;28;20154;-83
2023/06/09 11:12:29;;;;;;;14.93;4.90;;;35.00;35.70;;;;;;5027450;28;20457;-83
2023/06/09 11:14:56;;;;;;;13.90;4.63;;;34.70;39.60;;;;;;5031135;28;20555;-81
2023/06/09 11:17:29;;;;;;;15.05;5.55;;;34.20;41.60;;;;;;5029738;28;20037;-82
2023/06/09 11:20:09;;;;;;;14.63;5.07;;;35.20;37.40;;;;;;5021997;28;20113;-83
2023/06/09 11:22:41;;;;;;;9.40;4.82;;;35.20;37.20;;;;;;5034750;28;20081;-82
2023/06/09 11:25:08;;;;;;;16.88;5.35;;;35.70;39.40;;;;;;5016456;28;20119;-82
2023/06/09 11:27:34;;;;;;;14.45;4.82;;;34.40;39.10;;;;;;5024682;28;20039;-82
2023/06/09 11:30:11;;;;;;;14.85;4.90;;;33.10;42.60;;;;;;5047040;28;20408;-82
2023/06/09 11:32:49;;;;;;;17.33;5.68;;;32.30;43.50;;;;;;5042114;28;20094;-82
2023/06/09 11:35:30;;;;;;;15.40;5.43;;;31.20;47.20;;;;;;5042348;28;20105;-83
2023/06/09 11:38:00;;;;;;;16.42;5.80;;;30.40;51.30;;;;;;5043275;28;20032;-85
2023/06/09 11:40:30;;;;;;;12.60;5.25;;;29.50;52.00;;;;;;5044448;28;20053;-86
2023/06/09 11:42:57;;;;;;;15.20;5.25;;;29.30;59.50;;;;;;5040158;28;20112;-83
2023/06/09 11:45:24;;;;;;;13.65;5.53;;;29.80;54.10;;;;;;5047368;28;20033;-84
2023/06/09 11:47:56;;;;;;;13.00;5.53;;;30.30;60.80;;;;;;5030169;28;20140;-83
2023/06/09 11:50:22;;;;;;;15.65;5.72;;;30.30;53.00;;;;;;5023513;28;20030;-80
2023/06/09 11:53:04;;;;;;;17.58;5.35;;;29.70;52.40;;;;;;5036984;28;20540;-84
2023/06/09 11:55:30;;;;;;;16.75;5.47;;;29.40;55.70;;;;;;5029019;28;20033;-82
2023/06/09 11:57:56;;;;;;;15.25;5.85;;;29.30;63.30;;;;;;5042046;28;20025;-81
2023/06/09 12:00:26;;;;;;;14.35;5.50;;;29.00;54.60;;;;;;5023816;28;20068;-83
2023/06/09 12:02:53;;;;;;;15.88;5.30;;;29.20;57.10;;;;;;5030195;28;20522;-85
2023/06/09 12:05:19;;;;;;;17.23;5.43;;;29.00;56.60;;;;;;5048960;28;20036;-82
2023/06/09 12:07:46;;;;;;;15.70;5.57;;;28.60;58.50;;;;;;5045594;28;20032;-84
2023/06/09 12:10:20;;;;;;;15.13;5.35;;;28.70;62.50;;;;;;5063172;28;20029;-83
2023/06/09 12:12:57;;;;;;;16.00;5.35;;;29.30;62.50;;;;;;5053851;28;20049;-89
2023/06/09 12:15:25;;;;;;;13.93;5.68;;;29.50;57.00;;;;;;5044992;28;20079;-87
2023/06/09 12:17:52;;;;;;;11.85;5.30;;;29.70;63.70;;;;;;5041116;28;20033;-88
2023/06/09 12:20:38;;;;;;;13.10;5.50;;;29.60;61.80;;;;;;5046188;28;20032;-86
2023/06/09 12:23:06;;;;;;;14.52;5.15;;;30.00;65.50;;;;;;5043173;28;20357;-88
2023/06/09 12:25:35;;;;;;;15.20;5.47;;;29.90;59.60;;;;;;5038213;28;20536;-87
2023/06/09 12:28:23;;;;;;;17.58;5.75;;;29.90;64.40;;;;;;5040775;28;20055;-88
2023/06/09 12:30:50;;;;;;;13.65;5.25;;;30.00;62.70;;;;;;5043388;28;20531;-87
2023/06/09 12:33:17;;;;;;;17.50;5.68;;;30.60;61.70;;;;;;5043418;28;20029;-86
2023/06/09 12:35:48;;;;;;;13.15;5.38;;;29.90;59.20;;;;;;5026276;28;20033;-87
2023/06/09 12:38:16;;;;;;;14.15;5.43;;;29.50;63.10;;;;;;5043577;28;20020;-86
2023/06/09 12:40:54;;;;;;;19.65;5.63;;;29.20;59.90;;;;;;5042822;28;20032;-86
2023/06/09 12:43:24;;;;;;;14.68;5.25;;;29.40;60.90;;;;;;5031757;28;20030;-83